Time;durP1;ratioP1;P1;durP2;ratioP2;P2;SDS_P1;SDS_P2;PMS_P1;PMS_P2;Temp;Humidity;BMP_temperature;BMP_pressure;BME280_temperature;BME280_humidity;BME280_pressure;Samples;Min_cycle;Max_cycle;Signal;HPM_P1;HPM_P2
2022/08/30 00:02:53;;;;;;;10.95;8.85;;;;;;;19.73;95.59;64037.97;5023403;28;20253;-74
2022/08/30 00:05:20;;;;;;;10.18;8.80;;;;;;;19.77;95.96;64044.72;5027836;28;20198;-72
2022/08/30 00:07:48;;;;;;;10.00;8.90;;;;;;;19.77;96.49;64047.31;5019846;28;20217;-74
2022/08/30 00:10:15;;;;;;;10.77;9.38;;;;;;;19.80;97.32;64050.44;5023327;28;20206;-74
2022/08/30 00:12:42;;;;;;;9.80;8.80;;;;;;;19.76;99.24;64041.63;5025867;28;20225;-75
2022/08/30 00:15:12;;;;;;;9.43;8.52;;;;;;;19.84;98.25;64057.19;5024025;28;20206;-76
2022/08/30 00:17:39;;;;;;;9.88;8.93;;;;;;;19.86;96.87;64054.13;5006300;28;20398;-75
2022/08/30 00:20:11;;;;;;;9.50;8.68;;;;;;;19.88;96.45;64051.03;5020888;28;20210;-74
2022/08/30 00:22:38;;;;;;;13.90;8.88;;;;;;;19.86;95.67;64056.72;5026108;28;20234;-74
2022/08/30 00:25:08;;;;;;;9.93;8.93;;;;;;;19.88;95.35;64056.72;5016823;28;20211;-74
2022/08/30 00:27:35;;;;;;;8.93;8.02;;;;;;;19.88;94.74;64058.81;5009039;28;20282;-74
2022/08/30 00:30:03;;;;;;;9.98;9.07;;;;;;;19.90;94.07;64060.88;5026055;28;20224;-74
2022/08/30 00:32:30;;;;;;;10.80;9.60;;;;;;;19.89;94.11;64057.78;5024535;28;20210;-75
2022/08/30 00:34:57;;;;;;;10.40;8.50;;;;;;;19.87;94.12;64057.75;5026427;28;20202;-73
2022/08/30 00:37:24;;;;;;;10.63;8.65;;;;;;;19.88;94.39;64053.63;5029638;28;20233;-75
2022/08/30 00:39:51;;;;;;;13.30;8.75;;;;;;;19.89;93.55;64059.84;5030066;28;20195;-75
2022/08/30 00:42:22;;;;;;;11.30;8.48;;;;;;;19.90;93.29;64061.41;5025697;28;20478;-76
2022/08/30 00:44:49;;;;;;;9.90;8.98;;;;;;;19.88;93.58;64053.63;5009217;28;20529;-74
2022/08/30 00:47:16;;;;;;;10.65;9.55;;;;;;;19.87;93.80;64053.09;5009388;28;20270;-74
2022/08/30 00:49:47;;;;;;;12.40;8.57;;;;;;;19.86;95.04;64057.22;5009645;28;20446;-75
2022/08/30 00:52:16;;;;;;;9.70;8.80;;;;;;;19.85;96.50;64053.59;5014724;28;20226;-74
2022/08/30 00:54:45;;;;;;;8.70;7.88;;;;;;;19.81;97.24;64051.50;5023244;28;20203;-75
2022/08/30 00:57:15;;;;;;;12.40;10.25;;;;;;;19.76;98.15;64046.78;5030341;28;20226;-74
2022/08/30 00:59:44;;;;;;;13.00;8.80;;;;;;;19.77;98.70;64042.16;5028728;28;20198;-74
2022/08/30 01:02:12;;;;;;;12.00;9.32;;;;;;;19.76;98.51;64043.69;5015148;28;20232;-76
2022/08/30 01:04:41;;;;;;;11.18;9.40;;;;;;;19.73;98.78;64038.50;5019968;28;20210;-74
2022/08/30 01:07:08;;;;;;;11.80;9.85;;;;;;;19.76;98.45;64041.13;5033703;28;20225;-75
2022/08/30 01:09:35;;;;;;;10.80;9.55;;;;;;;19.69;98.20;64036.41;5028706;28;20194;-75
2022/08/30 01:12:04;;;;;;;10.25;9.18;;;;;;;19.69;99.05;64038.97;5029120;28;20218;-74
2022/08/30 01:14:32;;;;;;;9.88;9.02;;;;;;;19.66;98.84;64036.34;5025806;28;20210;-75
2022/08/30 01:17:02;;;;;;;12.18;9.77;;;;;;;19.62;99.36;64029.63;5030284;28;20218;-74
2022/08/30 01:19:36;;;;;;;9.32;8.52;;;;;;;19.59;99.88;64031.63;5024551;28;20193;-74
2022/08/30 01:22:11;;;;;;;9.93;8.50;;;;;;;19.55;100.00;64019.72;5028096;28;20234;-75
2022/08/30 01:24:40;;;;;;;11.73;9.73;;;;;;;19.42;100.00;64006.69;5030291;28;20194;-75
2022/08/30 01:27:07;;;;;;;10.32;9.30;;;;;;;19.38;100.00;64004.56;5028158;28;20264;-74
2022/08/30 01:29:34;;;;;;;11.10;9.50;;;;;;;19.31;100.00;63995.22;5013716;28;20199;-75
2022/08/30 01:32:02;;;;;;;11.23;9.80;;;;;;;19.20;100.00;63985.78;5021136;28;20217;-75
2022/08/30 01:34:29;;;;;;;12.77;10.55;;;;;;;19.24;100.00;63993.06;5030373;28;20194;-74
2022/08/30 01:36:56;;;;;;;11.30;10.35;;;;;;;19.08;100.00;63973.28;5021371;28;20219;-75
2022/08/30 01:39:23;;;;;;;13.02;10.57;;;;;;;19.06;100.00;63973.78;5009328;28;20199;-76
2022/08/30 01:41:51;;;;;;;13.32;10.45;;;;;;;19.00;100.00;63964.94;5024905;28;20222;-73
2022/08/30 01:44:18;;;;;;;14.75;10.65;;;;;;;18.95;100.00;63957.66;5028781;28;20194;-75
2022/08/30 01:46:47;;;;;;;11.85;10.65;;;;;;;18.88;100.00;63955.53;5016094;28;20276;-74
2022/08/30 01:49:19;;;;;;;14.88;10.00;;;;;;;18.83;100.00;63944.63;5010026;28;20203;-74
2022/08/30 01:51:46;;;;;;;11.52;10.32;;;;;;;18.78;100.00;63942.00;5029292;28;20228;-75
2022/08/30 01:54:14;;;;;;;11.02;9.93;;;;;;;18.73;100.00;63939.38;5029726;28;20326;-75
2022/08/30 01:56:42;;;;;;;13.27;10.38;;;;;;;18.73;100.00;63939.88;5011000;28;20229;-75
2022/08/30 01:59:13;;;;;;;11.60;10.50;;;;;;;18.63;100.00;63929.47;5016038;28;20209;-74
2022/08/30 02:01:41;;;;;;;12.77;10.73;;;;;;;18.63;100.00;63928.94;5029271;28;20220;-74
2022/08/30 02:04:10;;;;;;;13.93;10.63;;;;;;;18.59;100.00;63922.19;5026161;28;20249;-75
2022/08/30 02:06:38;;;;;;;11.13;10.05;;;;;;;18.60;100.00;63923.25;5029833;28;20214;-75
2022/08/30 02:09:05;;;;;;;11.07;10.00;;;;;;;18.61;100.00;63926.84;5023937;28;20198;-75
2022/08/30 02:11:32;;;;;;;14.32;10.82;;;;;;;18.60;100.00;63921.19;5029969;28;20221;-74
2022/08/30 02:14:00;;;;;;;16.92;10.32;;;;;;;18.60;100.00;63925.81;5027287;28;20202;-75
2022/08/30 02:16:28;;;;;;;13.93;10.65;;;;;;;18.60;100.00;63926.34;5028741;28;20230;-75
2022/08/30 02:18:56;;;;;;;13.32;10.23;;;;;;;18.63;100.00;63923.78;5027566;28;20198;-74
2022/08/30 02:21:24;;;;;;;13.05;9.88;;;;;;;18.62;100.00;63925.84;5017240;28;20265;-74
2022/08/30 02:23:52;;;;;;;13.02;10.98;;;;;;;18.45;100.00;63910.69;5013139;28;20293;-75
2022/08/30 02:26:20;;;;;;;14.13;10.60;;;;;;;18.53;100.00;63918.53;5020595;28;20441;-74
2022/08/30 02:28:49;;;;;;;12.63;11.30;;;;;;;18.56;100.00;63919.06;5029027;28;20265;-73
2022/08/30 02:31:16;;;;;;;19.95;11.15;;;;;;;18.54;100.00;63916.97;5023738;28;20218;-75
2022/08/30 02:33:45;;;;;;;10.63;9.63;;;;;;;18.52;100.00;63918.00;5008181;28;20198;-76
2022/08/30 02:36:12;;;;;;;12.95;10.98;;;;;;;18.49;100.00;63909.19;5007451;28;20222;-74
2022/08/30 02:38:39;;;;;;;12.27;10.32;;;;;;;18.51;100.00;63911.28;5014433;28;20189;-74
2022/08/30 02:41:07;;;;;;;14.02;10.73;;;;;;;18.43;100.00;63903.47;5026155;28;20260;-76
2022/08/30 02:43:34;;;;;;;10.75;9.75;;;;;;;18.39;100.00;63904.97;5022199;28;20258;-74
2022/08/30 02:46:00;;;;;;;11.32;10.18;;;;;;;18.36;100.00;63903.91;5008037;28;20527;-77
2022/08/30 02:48:27;;;;;;;10.40;9.30;;;;;;;18.40;100.00;63902.91;5021549;28;20197;-76
2022/08/30 02:50:56;;;;;;;11.18;10.07;;;;;;;18.38;100.00;63901.34;5008473;28;20222;-74
2022/08/30 02:53:23;;;;;;;11.55;10.43;;;;;;;18.38;100.00;63898.75;5016942;28;20203;-75
2022/08/30 02:55:51;;;;;;;10.65;9.45;;;;;;;18.37;100.00;63900.31;5029428;28;20218;-75
2022/08/30 02:58:17;;;;;;;10.73;9.65;;;;;;;18.38;100.00;63905.97;5025246;28;20410;-74
2022/08/30 03:00:44;;;;;;;10.93;9.95;;;;;;;18.42;100.00;63907.59;5031012;28;20220;-74
2022/08/30 03:03:12;;;;;;;13.95;10.68;;;;;;;18.44;100.00;63904.50;5029248;28;20237;-74
2022/08/30 03:05:39;;;;;;;14.07;10.13;;;;;;;18.43;100.00;63908.63;5031615;28;20217;-75
2022/08/30 03:08:09;;;;;;;14.55;10.70;;;;;;;18.41;100.00;63901.38;5023928;28;20203;-75
2022/08/30 03:10:37;;;;;;;12.32;11.05;;;;;;;18.38;100.00;63900.81;5014799;28;20202;-77
2022/08/30 03:13:06;;;;;;;15.60;11.98;;;;;;;18.39;100.00;63899.81;5031814;28;20217;-75
2022/08/30 03:15:33;;;;;;;12.80;11.50;;;;;;;18.37;100.00;63900.31;5030759;28;20265;-74
2022/08/30 03:18:00;;;;;;;15.68;12.77;;;;;;;18.38;100.00;63898.22;5028542;28;20198;-74
2022/08/30 03:20:27;;;;;;;16.70;11.88;;;;;;;18.39;100.00;63901.84;5023668;28;20273;-75
2022/08/30 03:22:54;;;;;;;13.55;12.15;;;;;;;18.35;100.00;63900.78;5026886;28;20235;-74
2022/08/30 03:25:22;;;;;;;12.93;11.73;;;;;;;18.34;100.00;63896.66;5026156;28;20245;-75
2022/08/30 03:27:50;;;;;;;13.27;11.82;;;;;;;18.33;100.00;63896.13;5027661;28;20218;-74
2022/08/30 03:30:19;;;;;;;17.67;12.00;;;;;;;18.33;100.00;63896.13;5024298;28;20221;-74
2022/08/30 03:32:47;;;;;;;15.18;12.20;;;;;;;18.33;100.00;63896.13;5027793;28;20380;-73
2022/08/30 03:35:16;;;;;;;13.38;11.98;;;;;;;18.34;100.00;63897.16;5021451;28;20206;-75
2022/08/30 03:37:43;;;;;;;16.45;12.50;;;;;;;18.32;100.00;63897.66;5023993;28;20325;-74
2022/08/30 03:40:12;;;;;;;15.25;12.85;;;;;;;18.32;100.00;63894.56;5028025;28;20528;-73
2022/08/30 03:42:41;;;;;;;16.67;13.20;;;;;;;18.31;100.00;63896.09;5026838;28;20542;-75
2022/08/30 03:45:08;;;;;;;16.60;12.35;;;;;;;18.38;100.00;63901.34;5010552;28;20222;-75
2022/08/30 03:47:36;;;;;;;17.60;13.32;;;;;;;18.36;100.00;63896.66;5017490;28;20222;-75
2022/08/30 03:50:04;;;;;;;18.40;13.88;;;;;;;18.33;100.00;63893.03;5026496;28;20198;-73
2022/08/30 03:52:31;;;;;;;16.40;13.73;;;;;;;18.35;100.00;63892.53;5025541;28;20358;-75
2022/08/30 03:54:59;;;;;;;20.27;13.35;;;;;;;18.34;100.00;63897.16;5024246;28;20206;-74
2022/08/30 03:57:26;;;;;;;16.25;14.25;;;;;;;18.35;100.00;63895.09;5022890;28;20222;-74
2022/08/30 03:59:54;;;;;;;19.67;13.82;;;;;;;18.35;100.00;63900.25;5026209;28;20379;-75
2022/08/30 04:02:22;;;;;;;12.98;11.52;;;;;;;18.36;100.00;63896.66;5022215;28;20225;-75
2022/08/30 04:04:49;;;;;;;16.33;13.10;;;;;;;18.40;100.00;63905.50;5022131;28;20233;-75
2022/08/30 04:07:17;;;;;;;17.25;12.73;;;;;;;18.33;100.00;63893.53;5026944;28;20218;-75
2022/08/30 04:09:44;;;;;;;17.38;13.82;;;;;;;18.42;100.00;63905.53;5025738;28;20205;-75
2022/08/30 04:12:12;;;;;;;18.50;13.90;;;;;;;18.45;100.00;63910.69;5020741;28;20226;-76
2022/08/30 04:14:39;;;;;;;15.02;11.65;;;;;;;18.47;100.00;63910.22;5024734;28;20210;-74
2022/08/30 04:17:10;;;;;;;14.77;13.23;;;;;;;18.49;100.00;63911.78;5031568;28;20257;-76
2022/08/30 04:19:37;;;;;;;18.35;13.25;;;;;;;18.47;100.00;63910.22;5030543;28;20194;-75
2022/08/30 04:22:04;;;;;;;15.38;12.75;;;;;;;18.49;100.00;63914.88;5024760;28;20233;-75
2022/08/30 04:24:32;;;;;;;21.92;13.77;;;;;;;18.52;100.00;63914.91;5025394;28;20233;-75
2022/08/30 04:26:59;;;;;;;14.95;13.18;;;;;;;18.59;100.00;63924.78;5020129;28;20214;-75
2022/08/30 04:29:26;;;;;;;14.20;12.77;;;;;;;18.64;100.00;63927.91;5009542;28;20199;-74
2022/08/30 04:31:52;;;;;;;14.95;13.45;;;;;;;18.71;100.00;63935.22;5025276;28;20273;-75
2022/08/30 04:34:21;;;;;;;19.52;14.25;;;;;;;18.85;100.00;63954.97;5013107;28;20202;-75
2022/08/30 04:36:48;;;;;;;16.50;14.18;;;;;;;18.93;100.00;63960.72;5020313;28;20221;-76
2022/08/30 04:39:15;;;;;;;17.95;14.52;;;;;;;19.02;100.00;63964.44;5023277;28;20212;-74
2022/08/30 04:41:42;;;;;;;17.52;12.82;;;;;;;19.03;100.00;63973.75;5021827;28;20238;-75
2022/08/30 04:44:09;;;;;;;17.48;12.63;;;;;;;19.04;100.00;63969.63;5008278;28;20226;-74
2022/08/30 04:46:36;;;;;;;14.70;12.43;;;;;;;19.07;100.00;63972.25;5025457;28;20222;-74
2022/08/30 04:49:04;;;;;;;15.38;12.50;;;;;;;19.00;100.00;63965.44;5010760;28;20563;-75
2022/08/30 04:51:33;;;;;;;17.65;14.60;;;;;;;18.92;100.00;63959.16;5020609;28;20222;-75
2022/08/30 04:54:00;;;;;;;22.58;15.55;;;;;;;19.09;100.00;63980.00;5025945;28;20208;-75
2022/08/30 04:56:27;;;;;;;16.00;13.65;;;;;;;19.12;100.00;63975.38;5024304;28;20240;-75
2022/08/30 04:58:55;;;;;;;19.42;14.52;;;;;;;18.99;100.00;63967.00;5025302;28;20265;-74
2022/08/30 05:01:25;;;;;;;20.02;14.40;;;;;;;18.85;100.00;63949.81;5022997;28;20392;-76
2022/08/30 05:03:53;;;;;;;17.77;13.70;;;;;;;18.91;100.00;63953.50;5028743;28;20230;-75
2022/08/30 05:06:22;;;;;;;22.67;14.73;;;;;;;19.01;100.00;63969.09;5024434;28;20245;-74
2022/08/30 05:08:51;;;;;;;16.58;13.88;;;;;;;18.99;100.00;63966.47;5023371;28;20222;-75
2022/08/30 05:11:18;;;;;;;17.77;13.90;;;;;;;18.94;100.00;63958.69;5025391;28;20250;-74
2022/08/30 05:13:46;;;;;;;18.33;13.68;;;;;;;18.80;100.00;63942.03;5024536;28;20239;-74
2022/08/30 05:16:16;;;;;;;18.15;13.75;;;;;;;18.94;100.00;63961.25;5014953;28;20268;-73
2022/08/30 05:18:43;;;;;;;17.80;14.10;;;;;;;19.05;100.00;63972.72;5010708;28;20213;-74
2022/08/30 05:21:12;;;;;;;23.45;12.98;;;;;;;19.14;100.00;63982.63;5005992;28;20219;-74
2022/08/30 05:23:40;;;;;;;16.92;13.07;;;;;;;19.08;100.00;63973.81;5014302;28;20419;-73
2022/08/30 05:26:11;;;;;;;13.85;12.55;;;;;;;19.24;100.00;63992.53;5005714;28;20282;-74
2022/08/30 05:28:39;;;;;;;15.15;12.88;;;;;;;19.32;100.00;63996.25;5022807;28;20477;-75
2022/08/30 05:31:14;;;;;;;16.85;13.60;;;;;;;19.32;100.00;64000.91;5024674;28;20221;-76
2022/08/30 05:33:41;;;;;;;16.45;13.70;;;;;;;19.08;100.00;63973.81;5021950;28;20248;-75
2022/08/30 05:36:10;;;;;;;17.85;14.57;;;;;;;18.99;100.00;63967.00;5021326;28;20236;-74
2022/08/30 05:38:38;;;;;;;19.33;15.27;;;;;;;18.90;100.00;63952.44;5027774;28;20214;-75
2022/08/30 05:41:05;;;;;;;21.98;14.95;;;;;;;18.77;100.00;63938.91;5026216;28;20233;-75
2022/08/30 05:43:35;;;;;;;17.88;14.23;;;;;;;18.70;100.00;63934.19;5020402;28;20229;-74
2022/08/30 05:46:03;;;;;;;20.60;16.00;;;;;;;18.66;100.00;63937.75;5023473;28;20534;-74
2022/08/30 05:48:29;;;;;;;19.77;15.85;;;;;;;18.84;100.00;63945.69;5027617;28;20198;-75
2022/08/30 05:51:05;;;;;;;22.20;16.20;;;;;;;19.02;100.00;63969.59;5022399;28;20218;-74
2022/08/30 05:53:32;;;;;;;17.80;15.40;;;;;;;19.05;100.00;63970.66;5025676;28;20194;-75
2022/08/30 05:56:01;;;;;;;21.42;17.67;;;;;;;18.99;100.00;63967.00;5027177;28;20226;-74
2022/08/30 05:58:28;;;;;;;25.55;17.48;;;;;;;18.88;100.00;63955.53;5026035;28;20260;-75
2022/08/30 06:00:56;;;;;;;25.13;18.90;;;;;;;19.09;100.00;63980.00;5020427;28;20478;-73
2022/08/30 06:03:23;;;;;;;24.55;18.17;;;;;;;19.14;100.00;63982.09;5018293;28;20216;-75
2022/08/30 06:05:50;;;;;;;20.42;15.20;;;;;;;19.18;100.00;63986.28;5010637;28;20326;-75
2022/08/30 06:08:17;;;;;;;18.35;16.20;;;;;;;19.15;100.00;63983.16;5020274;28;20202;-74
2022/08/30 06:10:44;;;;;;;17.40;15.63;;;;;;;19.04;100.00;63967.03;5026684;28;20553;-76
2022/08/30 06:13:12;;;;;;;21.95;16.52;;;;;;;18.93;100.00;63960.22;5021515;28;20372;-75
2022/08/30 06:15:39;;;;;;;22.88;16.23;;;;;;;18.92;100.00;63954.53;5008911;28;20277;-75
2022/08/30 06:18:08;;;;;;;21.00;16.67;;;;;;;18.81;100.00;63948.22;5005743;28;20513;-75
2022/08/30 06:20:41;;;;;;;22.67;17.35;;;;;;;18.79;100.00;63943.03;5010203;28;20221;-75
2022/08/30 06:23:08;;;;;;;22.30;16.73;;;;;;;19.02;100.00;63967.00;5024853;28;20201;-75
2022/08/30 06:25:36;;;;;;;22.30;17.30;;;;;;;18.88;100.00;63949.84;5023726;28;20272;-75
2022/08/30 06:28:04;;;;;;;24.60;17.23;;;;;;;18.94;100.00;63961.78;5013802;28;20222;-75
2022/08/30 06:30:30;;;;;;;22.13;17.52;;;;;;;19.02;100.00;63969.59;5007577;28;20265;-76
2022/08/30 06:32:57;;;;;;;27.02;17.88;;;;;;;19.08;100.00;63970.69;5017172;28;20229;-74
2022/08/30 06:35:42;;;;;;;27.65;18.00;;;;;;;19.48;100.00;64010.34;5014854;28;20195;-75
2022/08/30 06:38:34;;;;;;;21.85;18.45;;;;;;;19.80;100.00;64050.44;5014824;28;20194;-75
2022/08/30 06:41:06;;;;;;;22.65;17.25;;;;;;;19.93;100.00;64058.84;5007707;28;20218;-75
2022/08/30 06:43:33;;;;;;;25.13;17.60;;;;;;;19.93;100.00;64059.34;5004761;28;20222;-75
2022/08/30 06:46:02;;;;;;;21.50;17.10;;;;;;;20.33;100.00;64105.75;5006077;28;20223;-74
2022/08/30 06:48:29;;;;;;;20.95;17.25;;;;;;;20.61;100.00;64130.34;5021931;28;20217;-74
2022/08/30 06:50:58;;;;;;;20.23;17.27;;;;;;;20.67;100.00;64141.25;5019464;28;20233;-76
2022/08/30 06:53:25;;;;;;;20.33;17.40;;;;;;;20.58;100.00;64129.81;5004680;28;20269;-74
2022/08/30 06:55:57;;;;;;;26.73;17.63;;;;;;;20.72;100.00;64143.91;5017071;28;20221;-76
2022/08/30 06:58:24;;;;;;;26.48;17.42;;;;;;;20.49;100.00;64120.41;5024208;28;20209;-75
2022/08/30 07:00:51;;;;;;;20.63;15.68;;;;;;;20.33;100.00;64103.16;5015357;28;20217;-76
2022/08/30 07:03:18;;;;;;;25.80;16.95;;;;;;;20.58;100.00;64129.28;5023803;28;20217;-74
2022/08/30 07:05:47;;;;;;;21.83;17.02;;;;;;;20.66;100.00;64140.22;5021387;28;20226;-75
2022/08/30 07:08:15;;;;;;;20.83;16.30;;;;;;;20.82;100.00;64151.22;5022107;28;20205;-76
2022/08/30 07:10:42;;;;;;;24.38;17.50;;;;;;;20.58;100.00;64129.81;5010901;28;20199;-75
2022/08/30 07:13:10;;;;;;;21.77;16.98;;;;;;;20.76;100.00;64144.97;5005372;28;20206;-75
2022/08/30 07:15:41;;;;;;;25.23;16.05;;;;;;;21.13;100.00;64186.19;5010799;28;20201;-74
2022/08/30 07:20:52;;;;;;;22.95;17.98;;;;;;;20.58;100.00;64129.81;5015539;28;20228;-75
2022/08/30 07:23:20;;;;;;;22.95;17.23;;;;;;;20.71;100.00;64150.09;5030175;28;20198;-75
2022/08/30 07:25:47;;;;;;;24.45;17.55;;;;;;;20.58;100.00;64132.41;5011281;28;20242;-76
2022/08/30 07:28:14;;;;;;;26.80;18.27;;;;;;;20.53;100.00;64124.59;5016787;28;20517;-77
2022/08/30 07:30:43;;;;;;;34.08;17.30;;;;;;;20.60;100.00;64131.38;5021373;28;20240;-75
2022/08/30 07:33:10;;;;;;;24.05;16.88;;;;;;;20.68;100.00;64139.72;5029170;28;20245;-75
2022/08/30 07:35:37;;;;;;;19.70;16.10;;;;;;;20.89;100.00;64161.63;5029428;28;20234;-74
2022/08/30 07:38:04;;;;;;;22.70;15.70;;;;;;;20.20;100.00;64090.16;5011593;28;20203;-76
2022/08/30 07:40:32;;;;;;;18.30;15.18;;;;;;;20.26;100.00;64096.41;5021436;28;20205;-75
2022/08/30 07:43:01;;;;;;;19.08;15.05;;;;;;;20.66;100.00;64138.16;5022874;28;20214;-75
2022/08/30 07:45:28;;;;;;;18.77;14.93;;;;;;;20.52;100.00;64125.59;5021107;28;20230;-75
2022/08/30 07:47:56;;;;;;;17.40;14.90;;;;;;;20.25;100.00;64094.84;5007692;28;20247;-75
2022/08/30 07:50:23;;;;;;;23.05;16.10;;;;;;;20.31;100.00;64101.09;5010042;28;20203;-75
2022/08/30 07:52:50;;;;;;;22.83;17.33;;;;;;;19.69;100.00;64034.31;5023687;28;20229;-75
2022/08/30 07:55:17;;;;;;;25.92;19.50;;;;;;;19.28;100.00;63996.69;5022411;28;20209;-73
2022/08/30 07:57:45;;;;;;;20.15;17.67;;;;;;;19.04;100.00;63974.25;5026679;28;20395;-73
2022/08/30 08:00:13;;;;;;;24.70;19.00;;;;;;;18.85;100.00;63949.81;5024333;28;20199;-74
2022/08/30 08:02:41;;;;;;;27.50;20.40;;;;;;;18.70;100.00;63936.75;5027928;28;20232;-74
2022/08/30 08:05:09;;;;;;;26.42;19.50;;;;;;;18.76;100.00;63940.44;5013185;28;20239;-74
2022/08/30 08:07:36;;;;;;;28.45;20.50;;;;;;;18.92;100.00;63951.44;5015555;28;20540;-75
2022/08/30 08:10:04;;;;;;;24.02;18.67;;;;;;;18.85;100.00;63947.25;5024606;28;20198;-75
2022/08/30 08:12:30;;;;;;;22.92;15.93;;;;;;;19.00;100.00;63962.34;5024760;28;20418;-76
2022/08/30 08:14:59;;;;;;;21.10;17.15;;;;;;;19.27;100.00;63995.66;5007917;28;20546;-75
2022/08/30 08:17:26;;;;;;;17.65;15.82;;;;;;;19.35;100.00;64004.03;5008093;28;20222;-75
2022/08/30 08:19:53;;;;;;;18.38;16.10;;;;;;;19.42;100.00;64008.75;5020794;28;20225;-75
2022/08/30 08:22:20;;;;;;;22.30;16.90;;;;;;;19.55;100.00;64017.16;5021083;28;20218;-74
2022/08/30 08:24:46;;;;;;;24.35;18.05;;;;;;;19.61;100.00;64028.03;5026584;28;20237;-75
2022/08/30 08:27:14;;;;;;;22.23;16.52;;;;;;;19.62;100.00;64031.66;5024305;28;20226;-74
2022/08/30 08:29:41;;;;;;;21.05;17.40;;;;;;;19.79;100.00;64049.41;5014159;28;20241;-76
2022/08/30 08:32:09;;;;;;;21.48;15.55;;;;;;;19.81;100.00;64048.91;5005970;28;20282;-76
2022/08/30 08:34:40;;;;;;;21.95;16.35;;;;;;;19.94;100.00;64062.47;5010049;28;20190;-77
2022/08/30 08:37:07;;;;;;;18.80;15.88;;;;;;;20.03;100.00;64072.38;5012296;28;20412;-76
2022/08/30 08:39:34;;;;;;;19.23;15.45;;;;;;;20.27;100.00;64096.91;5025171;28;20221;-76
2022/08/30 08:42:09;;;;;;;17.00;14.98;;;;;;;20.25;100.00;64094.84;5028579;28;20400;-74
2022/08/30 08:44:49;;;;;;;19.85;15.80;;;;;;;20.50;100.00;64116.25;5019984;28;20213;-76
2022/08/30 08:47:25;;;;;;;16.15;14.20;;;;;;;20.81;100.00;64160.53;5021718;28;20268;-75
2022/08/30 08:49:57;;;;;;;17.40;14.07;;;;;;;20.90;100.00;64162.16;5025284;28;20220;-75
2022/08/30 08:55:16;;;;;;;16.60;13.48;;;;;;;21.08;100.00;64181.50;5021940;28;20220;-75
2022/08/30 08:57:43;;;;;;;15.30;13.45;;;;;;;21.35;100.00;64203.97;5024908;28;20217;-75
2022/08/30 09:00:13;;;;;;;18.20;12.80;;;;;;;21.71;100.00;64249.91;5026291;28;20210;-75
2022/08/30 09:02:45;;;;;;;15.18;11.77;;;;;;;22.05;100.00;64279.75;5016384;28;20227;-74
2022/08/30 09:05:14;;;;;;;14.25;10.98;;;;;;;22.43;97.82;64322.06;5022059;28;20234;-75
2022/08/30 09:07:47;;;;;;;12.88;10.50;;;;;;;22.87;94.85;64364.94;5026123;28;20236;-76
2022/08/30 09:10:14;;;;;;;11.20;10.07;;;;;;;23.26;89.97;64408.34;5025663;28;20518;-76
2022/08/30 09:12:43;;;;;;;12.57;10.23;;;;;;;23.74;87.43;64455.97;5013046;28;20231;-74
2022/08/30 09:15:17;;;;;;;10.38;9.48;;;;;;;24.19;81.85;64504.66;5024811;28;20384;-75
2022/08/30 09:17:54;;;;;;;8.77;7.88;;;;;;;24.69;73.92;64557.00;5024753;28;20337;-75
2022/08/30 09:20:26;;;;;;;10.98;8.02;;;;;;;24.74;74.78;64567.47;5020725;28;20194;-75
2022/08/30 09:22:53;;;;;;;9.32;6.80;;;;;;;25.04;67.48;64591.06;5024676;28;20217;-75
2022/08/30 09:25:24;;;;;;;7.90;7.15;;;;;;;25.42;60.44;64630.38;5024613;28;20253;-75
2022/08/30 09:27:52;;;;;;;7.43;6.82;;;;;;;25.13;60.05;64606.22;5026160;28;20209;-75
2022/08/30 09:30:22;;;;;;;8.25;7.45;;;;;;;25.59;59.90;64648.19;5016131;28;20221;-76
2022/08/30 09:32:55;;;;;;;11.20;7.88;;;;;;;25.61;61.09;64653.41;5023848;28;20403;-76
2022/08/30 09:35:24;;;;;;;8.48;7.65;;;;;;;25.42;59.72;64627.75;5024079;28;20228;-75
2022/08/30 09:37:55;;;;;;;10.32;7.63;;;;;;;25.75;66.94;64670.69;5024571;28;20421;-76
2022/08/30 09:40:27;;;;;;;9.93;7.63;;;;;;;25.49;66.81;64643.44;5013544;28;20220;-74
2022/08/30 09:43:08;;;;;;;13.05;8.23;;;;;;;25.24;64.80;64614.63;5025364;28;20205;-75
2022/08/30 09:45:39;;;;;;;9.48;7.40;;;;;;;24.97;63.34;64588.94;5024853;28;20241;-76
2022/08/30 09:48:29;;;;;;;8.50;7.50;;;;;;;25.68;60.05;64662.84;5018129;28;20203;-75
2022/08/30 09:51:33;;;;;;;8.95;8.05;;;;;;;26.24;59.84;64724.16;5024254;28;20256;-76
2022/08/30 09:54:14;;;;;;;8.27;7.53;;;;;;;26.61;57.40;64760.34;4969750;28;20208;-76
2022/08/30 09:56:50;;;;;;;12.25;8.38;;;;;;;26.75;60.32;64771.91;5022886;28;20217;-75
2022/08/30 09:59:36;;;;;;;7.95;7.15;;;;;;;26.38;56.63;64733.63;5021639;28;20557;-74
2022/08/30 10:02:13;;;;;;;12.07;8.45;;;;;;;25.53;62.94;64647.09;5027680;28;20218;-75
2022/08/30 10:04:49;;;;;;;11.52;7.30;;;;;;;25.73;58.53;64665.47;5029788;28;20232;-75
2022/08/30 10:07:29;;;;;;;9.80;7.60;;;;;;;26.67;58.38;64758.81;5024323;28;20226;-76
2022/08/30 10:10:06;;;;;;;7.88;7.15;;;;;;;27.47;53.60;64849.56;5035980;28;20220;-74
2022/08/30 10:12:43;;;;;;;8.65;7.82;;;;;;;28.11;51.83;64914.66;5033146;28;20260;-76
2022/08/30 10:15:14;;;;;;;7.93;7.25;;;;;;;28.32;49.84;64938.78;5030864;28;20190;-76
2022/08/30 10:17:51;;;;;;;8.63;7.85;;;;;;;28.55;48.90;64962.44;5021411;28;20222;-74
2022/08/30 10:20:37;;;;;;;8.32;7.13;;;;;;;28.23;48.77;64929.84;5007749;28;20251;-75
2022/08/30 10:23:09;;;;;;;14.38;7.85;;;;;;;27.91;49.63;64890.50;5011596;28;20209;-75
2022/08/30 10:25:42;;;;;;;10.80;8.50;;;;;;;28.01;49.50;64904.16;5017080;28;20237;-75
2022/08/30 10:28:14;;;;;;;8.57;7.13;;;;;;;28.30;48.32;64937.22;5018154;28;20198;-76
2022/08/30 10:30:47;;;;;;;10.68;8.57;;;;;;;28.18;48.43;64922.00;5023280;28;20202;-77
2022/08/30 10:33:18;;;;;;;9.05;8.15;;;;;;;28.45;49.23;64947.19;5020137;28;20210;-76
2022/08/30 10:35:50;;;;;;;11.68;9.45;;;;;;;28.57;47.72;64965.06;5020366;28;20225;-76
2022/08/30 10:38:22;;;;;;;11.32;8.88;;;;;;;28.34;48.66;64938.25;5024810;28;20198;-75
2022/08/30 10:41:16;;;;;;;10.80;8.43;;;;;;;28.58;49.02;64966.09;5005850;28;20253;-75
2022/08/30 10:43:52;;;;;;;14.95;8.77;;;;;;;28.28;47.47;64931.97;5014140;28;20369;-74
2022/08/30 10:46:26;;;;;;;11.90;9.27;;;;;;;27.53;47.75;64855.84;5019618;28;20522;-75
2022/08/30 10:48:56;;;;;;;12.43;10.30;;;;;;;26.88;56.23;64788.16;5024380;28;20201;-75
2022/08/30 10:51:41;;;;;;;13.90;11.38;;;;;;;27.29;58.80;64829.09;5024993;28;20256;-76
2022/08/30 10:54:15;;;;;;;19.27;12.32;;;;;;;27.17;57.60;64816.50;5019705;28;20499;-75
2022/08/30 10:56:45;;;;;;;15.43;11.48;;;;;;;27.23;56.51;64820.16;5023860;28;20445;-75
2022/08/30 10:59:13;;;;;;;15.57;11.32;;;;;;;27.33;56.75;64840.09;5012483;28;20206;-77
2022/08/30 11:02:01;;;;;;;14.45;12.15;;;;;;;27.66;55.53;64875.25;5007888;28;20456;-75
2022/08/30 11:04:48;;;;;;;14.13;10.63;;;;;;;28.10;55.00;64907.84;5027624;28;20210;-74
2022/08/30 11:07:27;;;;;;;14.35;10.63;;;;;;;28.35;52.68;64939.84;5023304;28;20217;-74
2022/08/30 11:10:08;;;;;;;14.75;10.85;;;;;;;28.14;54.21;64917.28;5007138;28;20225;-75
2022/08/30 11:12:40;;;;;;;13.13;10.25;;;;;;;28.04;54.21;64904.69;5011549;28;20222;-75
2022/08/30 11:15:18;;;;;;;13.57;10.10;;;;;;;27.61;55.98;64864.25;5026107;28;20191;-77
2022/08/30 11:17:54;;;;;;;12.43;9.80;;;;;;;27.92;58.08;64894.69;5015926;28;20285;-74
2022/08/30 11:20:42;;;;;;;12.55;9.93;;;;;;;27.84;54.38;64886.28;5022559;28;20204;-76
2022/08/30 11:23:29;;;;;;;10.77;9.77;;;;;;;27.48;51.80;64851.13;5012345;28;20203;-76
2022/08/30 11:26:00;;;;;;;10.90;9.10;;;;;;;27.56;51.52;64856.38;5014487;28;20237;-74
2022/08/30 11:29:06;;;;;;;10.98;9.98;;;;;;;27.55;50.79;64855.31;5009892;28;20300;-75
2022/08/30 11:31:41;;;;;;;10.18;9.18;;;;;;;27.24;53.08;64823.31;5025698;28;20276;-75
2022/08/30 11:34:09;;;;;;;10.45;9.32;;;;;;;27.41;53.72;64843.25;5032123;28;20204;-75